Arlington, Maryland
Current Conditions -  °F | °C
As of 3:54 AM on Monday 22 Dec 2014 (Local Time) from KBWI Reporting Station
Broken Clouds Broken Clouds  
Wind Chill: 27°   Ceiling: 25000
Heat Index: 27°   Visibility: 7mi
Dew Point: 22°   Wind: 0mph
Humidity: 81%   Direction: NA
Pressure: 30.3"   Gusts: NA
Location:  39.3453°N, 76.6832°W
Report Text: KBWI 220854Z 00000KT 7SM BKN250 M03/M06 A3030 RMK AO2 SLP262 T10281056 58007
Loading
Personal Weather Stations






























Interactive Weather Map New forecast layout! Learn more

10-Day Weather Forecast

Advertisements
Track Severe Weather on mobile